sensor_id;sensor_type;location;lat;lon;timestamp;pressure;altitude;pressure_sealevel;temperature;humidity
69524;BME280;56723;42.694;23.286;2022-10-16T00:02:21;95723.31;;;7.02;100.00
69524;BME280;56723;42.694;23.286;2022-10-16T00:04:48;95723.69;;;6.97;100.00
69524;BME280;56723;42.694;23.286;2022-10-16T00:07:14;95734.81;;;6.98;100.00
69524;BME280;56723;42.694;23.286;2022-10-16T00:09:41;95731.53;;;6.95;100.00
69524;BME280;56723;42.694;23.286;2022-10-16T00:12:08;95742.78;;;6.94;100.00
69524;BME280;56723;42.694;23.286;2022-10-16T00:14:34;95740.78;;;6.98;99.75
69524;BME280;56723;42.694;23.286;2022-10-16T00:17:01;95732.38;;;6.96;99.69
69524;BME280;56723;42.694;23.286;2022-10-16T00:19:28;95734.94;;;6.96;99.62
69524;BME280;56723;42.694;23.286;2022-10-16T00:21:55;95732.59;;;6.93;99.43
69524;BME280;56723;42.694;23.286;2022-10-16T00:24:22;95741.53;;;6.89;99.87
69524;BME280;56723;42.694;23.286;2022-10-16T00:26:49;95739.88;;;6.88;100.00
69524;BME280;56723;42.694;23.286;2022-10-16T00:29:16;95736.66;;;6.86;100.00
69524;BME280;56723;42.694;23.286;2022-10-16T00:31:43;95746.38;;;6.82;100.00
69524;BME280;56723;42.694;23.286;2022-10-16T00:34:10;95739.81;;;6.78;100.00
69524;BME280;56723;42.694;23.286;2022-10-16T00:36:36;95744.66;;;6.72;100.00
69524;BME280;56723;42.694;23.286;2022-10-16T00:39:03;95757.66;;;6.70;100.00
69524;BME280;56723;42.694;23.286;2022-10-16T00:41:30;95750.03;;;6.69;100.00
69524;BME280;56723;42.694;23.286;2022-10-16T00:43:58;95746.66;;;6.68;100.00
69524;BME280;56723;42.694;23.286;2022-10-16T00:46:34;95748.56;;;6.66;100.00
69524;BME280;56723;42.694;23.286;2022-10-16T00:51:30;95743.78;;;6.62;100.00
69524;BME280;56723;42.694;23.286;2022-10-16T00:53:59;95736.97;;;6.60;100.00
69524;BME280;56723;42.694;23.286;2022-10-16T00:56:26;95737.22;;;6.57;100.00
69524;BME280;56723;42.694;23.286;2022-10-16T00:58:53;95751.84;;;6.57;100.00
69524;BME280;56723;42.694;23.286;2022-10-16T01:01:20;95740.75;;;6.56;100.00
69524;BME280;56723;42.694;23.286;2022-10-16T01:03:47;95742.63;;;6.54;100.00
69524;BME280;56723;42.694;23.286;2022-10-16T01:06:18;95748.81;;;6.52;100.00
69524;BME280;56723;42.694;23.286;2022-10-16T01:08:53;95750.69;;;6.50;100.00
69524;BME280;56723;42.694;23.286;2022-10-16T01:11:34;95754.47;;;6.46;100.00
69524;BME280;56723;42.694;23.286;2022-10-16T01:14:09;95753.78;;;6.44;100.00
69524;BME280;56723;42.694;23.286;2022-10-16T01:16:39;95748.63;;;6.44;100.00
69524;BME280;56723;42.694;23.286;2022-10-16T01:21:51;95743.59;;;6.42;100.00
69524;BME280;56723;42.694;23.286;2022-10-16T01:24:38;95747.00;;;6.43;100.00
69524;BME280;56723;42.694;23.286;2022-10-16T01:34:51;95745.47;;;6.40;100.00
69524;BME280;56723;42.694;23.286;2022-10-16T01:37:25;95747.13;;;6.41;100.00
69524;BME280;56723;42.694;23.286;2022-10-16T01:39:55;95739.63;;;6.38;100.00
69524;BME280;56723;42.694;23.286;2022-10-16T01:42:26;95742.44;;;6.35;100.00
69524;BME280;56723;42.694;23.286;2022-10-16T01:44:55;95746.06;;;6.33;100.00
69524;BME280;56723;42.694;23.286;2022-10-16T01:47:23;95742.00;;;6.30;100.00
69524;BME280;56723;42.694;23.286;2022-10-16T01:49:52;95749.16;;;6.27;100.00
69524;BME280;56723;42.694;23.286;2022-10-16T01:52:21;95751.13;;;6.23;100.00
69524;BME280;56723;42.694;23.286;2022-10-16T01:54:50;95750.56;;;6.19;100.00
69524;BME280;56723;42.694;23.286;2022-10-16T01:57:18;95755.81;;;6.18;100.00
69524;BME280;56723;42.694;23.286;2022-10-16T01:59:49;95751.50;;;6.18;100.00
69524;BME280;56723;42.694;23.286;2022-10-16T02:02:17;95757.69;;;6.16;100.00
69524;BME280;56723;42.694;23.286;2022-10-16T02:04:46;95760.25;;;6.16;100.00
69524;BME280;56723;42.694;23.286;2022-10-16T02:07:14;95757.94;;;6.13;100.00
69524;BME280;56723;42.694;23.286;2022-10-16T02:09:41;95764.97;;;6.11;100.00
69524;BME280;56723;42.694;23.286;2022-10-16T02:12:09;95770.13;;;6.11;100.00
69524;BME280;56723;42.694;23.286;2022-10-16T02:14:38;95760.41;;;6.03;100.00
69524;BME280;56723;42.694;23.286;2022-10-16T02:17:12;95773.41;;;6.02;100.00
69524;BME280;56723;42.694;23.286;2022-10-16T02:19:40;95779.47;;;6.01;100.00
69524;BME280;56723;42.694;23.286;2022-10-16T02:22:08;95773.41;;;6.02;100.00
69524;BME280;56723;42.694;23.286;2022-10-16T02:24:43;95777.84;;;6.00;100.00
69524;BME280;56723;42.694;23.286;2022-10-16T02:29:50;95789.78;;;5.89;100.00
69524;BME280;56723;42.694;23.286;2022-10-16T02:32:20;95786.38;;;5.89;100.00
69524;BME280;56723;42.694;23.286;2022-10-16T02:34:49;95788.97;;;5.89;100.00
69524;BME280;56723;42.694;23.286;2022-10-16T02:37:17;95779.69;;;5.86;100.00
69524;BME280;56723;42.694;23.286;2022-10-16T02:39:44;95779.00;;;5.84;100.00
69524;BME280;56723;42.694;23.286;2022-10-16T02:42:11;95783.31;;;5.84;100.00
69524;BME280;56723;42.694;23.286;2022-10-16T02:44:38;95784.25;;;5.83;100.00
69524;BME280;56723;42.694;23.286;2022-10-16T02:47:05;95791.59;;;5.76;100.00
69524;BME280;56723;42.694;23.286;2022-10-16T02:49:32;95793.63;;;5.73;100.00
69524;BME280;56723;42.694;23.286;2022-10-16T02:51:58;95798.50;;;5.65;100.00
69524;BME280;56723;42.694;23.286;2022-10-16T02:54:25;95802.00;;;5.64;100.00
69524;BME280;56723;42.694;23.286;2022-10-16T02:56:52;95806.56;;;5.60;100.00
69524;BME280;56723;42.694;23.286;2022-10-16T02:59:19;95808.69;;;5.55;100.00
69524;BME280;56723;42.694;23.286;2022-10-16T03:01:45;95802.94;;;5.51;100.00
69524;BME280;56723;42.694;23.286;2022-10-16T03:04:12;95801.53;;;5.47;100.00
69524;BME280;56723;42.694;23.286;2022-10-16T03:06:39;95809.13;;;5.49;100.00
69524;BME280;56723;42.694;23.286;2022-10-16T03:09:05;95810.75;;;5.50;100.00
69524;BME280;56723;42.694;23.286;2022-10-16T03:11:32;95802.59;;;5.56;100.00
69524;BME280;56723;42.694;23.286;2022-10-16T03:13:59;95805.50;;;5.63;100.00
69524;BME280;56723;42.694;23.286;2022-10-16T03:16:25;95813.09;;;5.64;100.00
69524;BME280;56723;42.694;23.286;2022-10-16T03:18:52;95807.75;;;5.67;100.00
69524;BME280;56723;42.694;23.286;2022-10-16T03:21:19;95807.53;;;5.70;100.00
69524;BME280;56723;42.694;23.286;2022-10-16T03:23:45;95811.25;;;5.66;100.00
69524;BME280;56723;42.694;23.286;2022-10-16T03:26:13;95809.84;;;5.62;100.00
69524;BME280;56723;42.694;23.286;2022-10-16T03:28:40;95819.88;;;5.65;100.00
69524;BME280;56723;42.694;23.286;2022-10-16T03:31:07;95817.31;;;5.54;100.00
69524;BME280;56723;42.694;23.286;2022-10-16T03:33:34;95820.34;;;5.37;100.00
69524;BME280;56723;42.694;23.286;2022-10-16T03:36:01;95821.72;;;5.30;100.00
69524;BME280;56723;42.694;23.286;2022-10-16T03:38:28;95818.75;;;5.23;100.00
69524;BME280;56723;42.694;23.286;2022-10-16T03:40:54;95824.47;;;5.15;100.00
69524;BME280;56723;42.694;23.286;2022-10-16T03:43:21;95823.97;;;5.10;100.00
69524;BME280;56723;42.694;23.286;2022-10-16T03:45:49;95815.56;;;5.08;100.00
69524;BME280;56723;42.694;23.286;2022-10-16T03:48:16;95812.88;;;5.10;100.00
69524;BME280;56723;42.694;23.286;2022-10-16T03:50:43;95820.38;;;5.13;100.00
69524;BME280;56723;42.694;23.286;2022-10-16T03:53:10;95818.63;;;5.13;100.00
69524;BME280;56723;42.694;23.286;2022-10-16T03:55:37;95811.13;;;5.10;100.00
69524;BME280;56723;42.694;23.286;2022-10-16T03:58:03;95810.44;;;5.08;100.00
69524;BME280;56723;42.694;23.286;2022-10-16T04:00:30;95810.44;;;5.08;100.00
69524;BME280;56723;42.694;23.286;2022-10-16T04:02:57;95809.00;;;5.04;100.00
69524;BME280;56723;42.694;23.286;2022-10-16T04:05:24;95814.38;;;5.01;100.00
69524;BME280;56723;42.694;23.286;2022-10-16T04:07:50;95816.25;;;4.99;100.00
69524;BME280;56723;42.694;23.286;2022-10-16T04:10:17;95813.69;;;4.99;100.00
69524;BME280;56723;42.694;23.286;2022-10-16T04:12:44;95819.75;;;4.98;100.00
69524;BME280;56723;42.694;23.286;2022-10-16T04:15:11;95816.47;;;4.96;100.00
69524;BME280;56723;42.694;23.286;2022-10-16T04:17:37;95815.66;;;4.96;100.00
69524;BME280;56723;42.694;23.286;2022-10-16T04:20:04;95796.78;;;4.84;100.00
69524;BME280;56723;42.694;23.286;2022-10-16T04:22:31;95815.66;;;4.96;100.00
69524;BME280;56723;42.694;23.286;2022-10-16T04:24:58;95816.69;;;4.93;100.00
69524;BME280;56723;42.694;23.286;2022-10-16T04:27:25;95820.19;;;4.92;100.00
69524;BME280;56723;42.694;23.286;2022-10-16T04:29:52;95819.38;;;4.92;100.00
69524;BME280;56723;42.694;23.286;2022-10-16T04:32:19;95826.03;;;4.94;100.00
69524;BME280;56723;42.694;23.286;2022-10-16T04:34:45;95825.09;;;4.95;100.00
69524;BME280;56723;42.694;23.286;2022-10-16T04:37:12;95824.88;;;4.98;100.00
69524;BME280;56723;42.694;23.286;2022-10-16T04:39:39;95829.09;;;4.99;100.00
69524;BME280;56723;42.694;23.286;2022-10-16T04:42:05;95825.59;;;5.00;100.00
69524;BME280;56723;42.694;23.286;2022-10-16T04:44:33;95830.25;;;4.95;100.00
69524;BME280;56723;42.694;23.286;2022-10-16T04:47:00;95828.81;;;4.91;100.00
69524;BME280;56723;42.694;23.286;2022-10-16T04:49:27;95835.00;;;4.88;100.00
69524;BME280;56723;42.694;23.286;2022-10-16T04:51:54;95844.66;;;4.85;100.00
69524;BME280;56723;42.694;23.286;2022-10-16T04:54:20;95847.34;;;4.83;100.00
69524;BME280;56723;42.694;23.286;2022-10-16T04:56:47;95848.66;;;4.89;100.00
69524;BME280;56723;42.694;23.286;2022-10-16T04:59:17;95850.28;;;4.90;100.00
69524;BME280;56723;42.694;23.286;2022-10-16T05:01:43;95863.03;;;4.92;100.00
69524;BME280;56723;42.694;23.286;2022-10-16T05:04:10;95858.59;;;4.94;100.00
69524;BME280;56723;42.694;23.286;2022-10-16T05:06:37;95854.28;;;4.94;100.00
69524;BME280;56723;42.694;23.286;2022-10-16T05:09:08;95859.63;;;4.91;100.00
69524;BME280;56723;42.694;23.286;2022-10-16T05:11:35;95859.41;;;4.94;100.00
69524;BME280;56723;42.694;23.286;2022-10-16T05:14:02;95855.00;;;4.96;100.00
69524;BME280;56723;42.694;23.286;2022-10-16T05:16:29;95865.72;;;5.01;100.00
69524;BME280;56723;42.694;23.286;2022-10-16T05:18:56;95866.69;;;5.00;100.00
69524;BME280;56723;42.694;23.286;2022-10-16T05:21:43;95867.38;;;5.02;100.00
69524;BME280;56723;42.694;23.286;2022-10-16T05:24:11;95873.34;;;5.03;100.00
69524;BME280;56723;42.694;23.286;2022-10-16T05:26:37;95873.56;;;5.00;100.00
69524;BME280;56723;42.694;23.286;2022-10-16T05:29:04;95874.16;;;5.03;100.00
69524;BME280;56723;42.694;23.286;2022-10-16T05:31:31;95877.00;;;5.11;100.00
69524;BME280;56723;42.694;23.286;2022-10-16T05:34:01;95877.50;;;5.16;100.00
69524;BME280;56723;42.694;23.286;2022-10-16T05:36:28;95875.16;;;5.25;100.00
69524;BME280;56723;42.694;23.286;2022-10-16T05:38:55;95876.16;;;5.35;100.00
69524;BME280;56723;42.694;23.286;2022-10-16T05:41:22;95876.41;;;5.43;100.00
69524;BME280;56723;42.694;23.286;2022-10-16T05:43:52;95878.41;;;5.50;100.00
69524;BME280;56723;42.694;23.286;2022-10-16T05:46:19;95880.19;;;5.61;100.00
69524;BME280;56723;42.694;23.286;2022-10-16T05:48:45;95878.09;;;5.66;100.00
69524;BME280;56723;42.694;23.286;2022-10-16T05:51:13;95891.44;;;5.71;100.00
69524;BME280;56723;42.694;23.286;2022-10-16T05:53:40;95890.13;;;5.77;100.00
69524;BME280;56723;42.694;23.286;2022-10-16T05:56:09;95891.03;;;5.88;100.00
69524;BME280;56723;42.694;23.286;2022-10-16T05:58:36;95899.44;;;6.02;100.00
69524;BME280;56723;42.694;23.286;2022-10-16T06:01:05;95891.72;;;6.13;100.00
69524;BME280;56723;42.694;23.286;2022-10-16T06:03:34;95897.47;;;6.28;100.00
69524;BME280;56723;42.694;23.286;2022-10-16T06:08:54;95908.44;;;6.52;100.00
69524;BME280;56723;42.694;23.286;2022-10-16T06:11:22;95906.94;;;6.60;99.23
69524;BME280;56723;42.694;23.286;2022-10-16T06:13:50;95916.63;;;6.68;98.82
69524;BME280;56723;42.694;23.286;2022-10-16T06:16:17;95914.03;;;6.79;98.33
69524;BME280;56723;42.694;23.286;2022-10-16T06:18:44;95915.75;;;6.90;97.18
69524;BME280;56723;42.694;23.286;2022-10-16T06:21:16;95910.59;;;7.01;96.57
69524;BME280;56723;42.694;23.286;2022-10-16T06:23:43;95915.47;;;7.15;96.48
69524;BME280;56723;42.694;23.286;2022-10-16T06:26:30;95919.88;;;7.24;95.04
69524;BME280;56723;42.694;23.286;2022-10-16T06:28:57;95923.03;;;7.28;95.41
69524;BME280;56723;42.694;23.286;2022-10-16T06:31:25;95925.00;;;7.36;94.54
69524;BME280;56723;42.694;23.286;2022-10-16T06:33:54;95924.13;;;7.46;94.13
69524;BME280;56723;42.694;23.286;2022-10-16T06:36:21;95925.16;;;7.55;93.07
69524;BME280;56723;42.694;23.286;2022-10-16T06:38:48;95936.34;;;7.65;92.67
69524;BME280;56723;42.694;23.286;2022-10-16T06:41:16;95930.34;;;7.76;92.06
69524;BME280;56723;42.694;23.286;2022-10-16T06:43:43;95926.16;;;7.84;91.17
69524;BME280;56723;42.694;23.286;2022-10-16T06:46:14;95936.13;;;7.89;90.59
69524;BME280;56723;42.694;23.286;2022-10-16T06:48:41;95935.75;;;7.93;89.93
69524;BME280;56723;42.694;23.286;2022-10-16T06:51:09;95938.91;;;7.97;89.59
69524;BME280;56723;42.694;23.286;2022-10-16T06:53:38;95941.53;;;8.07;89.13
69524;BME280;56723;42.694;23.286;2022-10-16T06:56:25;95943.19;;;8.17;89.02
69524;BME280;56723;42.694;23.286;2022-10-16T06:58:52;95952.66;;;8.28;89.29
69524;BME280;56723;42.694;23.286;2022-10-16T07:01:21;95947.16;;;8.42;88.50
69524;BME280;56723;42.694;23.286;2022-10-16T07:03:48;95953.06;;;8.54;86.69
69524;BME280;56723;42.694;23.286;2022-10-16T07:06:17;95946.88;;;8.66;86.02
69524;BME280;56723;42.694;23.286;2022-10-16T07:08:44;95947.44;;;8.79;86.07
69524;BME280;56723;42.694;23.286;2022-10-16T07:11:13;95958.22;;;8.94;85.16
69524;BME280;56723;42.694;23.286;2022-10-16T07:13:41;95954.47;;;9.08;83.96
69524;BME280;56723;42.694;23.286;2022-10-16T07:16:10;95956.63;;;9.12;81.63
69524;BME280;56723;42.694;23.286;2022-10-16T07:18:37;95955.94;;;9.10;82.04
69524;BME280;56723;42.694;23.286;2022-10-16T07:21:07;95955.84;;;9.21;82.11
69524;BME280;56723;42.694;23.286;2022-10-16T07:23:34;95960.50;;;9.27;81.55
69524;BME280;56723;42.694;23.286;2022-10-16T07:26:01;95953.69;;;9.26;80.65
69524;BME280;56723;42.694;23.286;2022-10-16T07:28:28;95958.31;;;9.32;81.17
69524;BME280;56723;42.694;23.286;2022-10-16T07:30:55;95963.78;;;9.39;80.56
69524;BME280;56723;42.694;23.286;2022-10-16T07:33:22;95955.31;;;9.47;80.76
69524;BME280;56723;42.694;23.286;2022-10-16T07:35:52;95941.44;;;9.48;80.27
69524;BME280;56723;42.694;23.286;2022-10-16T07:38:19;95961.59;;;9.73;79.59
69524;BME280;56723;42.694;23.286;2022-10-16T07:40:46;95952.06;;;9.83;78.42
69524;BME280;56723;42.694;23.286;2022-10-16T07:43:13;95962.13;;;9.96;77.94
69524;BME280;56723;42.694;23.286;2022-10-16T07:45:47;95954.88;;;10.09;76.92
69524;BME280;56723;42.694;23.286;2022-10-16T07:48:16;95961.03;;;10.18;76.44
69524;BME280;56723;42.694;23.286;2022-10-16T07:50:43;95963.06;;;10.33;78.13
69524;BME280;56723;42.694;23.286;2022-10-16T07:53:10;95969.47;;;10.39;78.42
69524;BME280;56723;42.694;23.286;2022-10-16T07:55:38;95965.06;;;10.49;76.61
69524;BME280;56723;42.694;23.286;2022-10-16T07:58:05;95964.16;;;10.68;75.09
69524;BME280;56723;42.694;23.286;2022-10-16T08:00:32;95970.91;;;10.88;73.28
69524;BME280;56723;42.694;23.286;2022-10-16T08:02:59;95962.59;;;11.12;71.58
69524;BME280;56723;42.694;23.286;2022-10-16T08:05:30;95964.56;;;11.28;70.79
69524;BME280;56723;42.694;23.286;2022-10-16T08:07:57;95961.69;;;11.49;69.76
69524;BME280;56723;42.694;23.286;2022-10-16T08:10:25;95965.59;;;11.70;69.00
69524;BME280;56723;42.694;23.286;2022-10-16T08:12:52;95961.75;;;11.92;67.94
69524;BME280;56723;42.694;23.286;2022-10-16T08:15:19;95959.63;;;12.05;67.10
69524;BME280;56723;42.694;23.286;2022-10-16T08:17:59;95958.78;;;12.31;68.99
69524;BME280;56723;42.694;23.286;2022-10-16T08:20:27;95957.69;;;12.59;65.27
69524;BME280;56723;42.694;23.286;2022-10-16T08:22:55;95953.69;;;12.81;64.48
69524;BME280;56723;42.694;23.286;2022-10-16T08:25:22;95948.53;;;12.89;62.95
69524;BME280;56723;42.694;23.286;2022-10-16T08:27:49;95957.84;;;13.00;62.00
69524;BME280;56723;42.694;23.286;2022-10-16T08:30:17;95956.59;;;13.12;62.07
69524;BME280;56723;42.694;23.286;2022-10-16T08:32:44;95955.69;;;13.21;60.92
69524;BME280;56723;42.694;23.286;2022-10-16T08:35:12;95951.97;;;13.32;60.04
69524;BME280;56723;42.694;23.286;2022-10-16T08:37:38;95950.22;;;13.48;59.17
69524;BME280;56723;42.694;23.286;2022-10-16T08:40:06;95956.44;;;13.72;58.76
69524;BME280;56723;42.694;23.286;2022-10-16T08:42:46;95947.31;;;13.92;57.63
69524;BME280;56723;42.694;23.286;2022-10-16T08:45:19;95951.91;;;14.06;56.09
69524;BME280;56723;42.694;23.286;2022-10-16T08:47:53;95950.75;;;14.01;55.66
69524;BME280;56723;42.694;23.286;2022-10-16T08:50:26;95951.72;;;14.08;55.26
69524;BME280;56723;42.694;23.286;2022-10-16T08:52:54;95950.56;;;14.18;54.83
69524;BME280;56723;42.694;23.286;2022-10-16T08:58:00;95957.44;;;14.44;53.92
69524;BME280;56723;42.694;23.286;2022-10-16T09:00:27;95960.13;;;14.67;51.85
69524;BME280;56723;42.694;23.286;2022-10-16T09:03:00;95954.22;;;14.81;51.31
69524;BME280;56723;42.694;23.286;2022-10-16T09:08:13;95957.25;;;15.01;48.60
69524;BME280;56723;42.694;23.286;2022-10-16T09:10:50;95953.72;;;15.24;48.03
69524;BME280;56723;42.694;23.286;2022-10-16T09:18:29;95942.94;;;15.81;44.48
69524;BME280;56723;42.694;23.286;2022-10-16T09:21:09;95946.25;;;15.98;44.15
69524;BME280;56723;42.694;23.286;2022-10-16T09:23:40;95945.19;;;16.07;43.66
69524;BME280;56723;42.694;23.286;2022-10-16T09:26:11;95943.56;;;16.06;43.86
69524;BME280;56723;42.694;23.286;2022-10-16T09:28:39;95948.38;;;16.17;42.49
69524;BME280;56723;42.694;23.286;2022-10-16T09:31:07;95950.44;;;16.07;41.58
69524;BME280;56723;42.694;23.286;2022-10-16T09:33:37;95947.53;;;16.02;42.96
69524;BME280;56723;42.694;23.286;2022-10-16T09:36:05;95948.34;;;16.03;41.90
69524;BME280;56723;42.694;23.286;2022-10-16T09:38:34;95947.72;;;16.15;42.63
69524;BME280;56723;42.694;23.286;2022-10-16T09:41:13;95943.06;;;16.25;42.05
69524;BME280;56723;42.694;23.286;2022-10-16T09:43:42;95935.53;;;16.31;42.45
69524;BME280;56723;42.694;23.286;2022-10-16T09:48:48;95936.84;;;16.64;41.66
69524;BME280;56723;42.694;23.286;2022-10-16T09:51:18;95929.16;;;16.77;40.97
69524;BME280;56723;42.694;23.286;2022-10-16T09:53:46;95917.97;;;16.98;40.83
69524;BME280;56723;42.694;23.286;2022-10-16T09:56:30;95923.03;;;17.00;40.96
69524;BME280;56723;42.694;23.286;2022-10-16T10:01:38;95926.19;;;17.31;40.88
69524;BME280;56723;42.694;23.286;2022-10-16T10:04:06;95930.34;;;17.40;39.80
69524;BME280;56723;42.694;23.286;2022-10-16T10:06:37;95922.13;;;17.43;39.73
69524;BME280;56723;42.694;23.286;2022-10-16T10:11:50;95920.69;;;17.26;40.73
69524;BME280;56723;42.694;23.286;2022-10-16T10:14:34;95912.81;;;17.05;41.26
69524;BME280;56723;42.694;23.286;2022-10-16T10:22:39;95917.88;;;17.42;39.90
69524;BME280;56723;42.694;23.286;2022-10-16T10:35:32;95902.53;;;17.82;39.47
69524;BME280;56723;42.694;23.286;2022-10-16T10:38:24;95895.63;;;17.95;39.82
69524;BME280;56723;42.694;23.286;2022-10-16T10:43:29;95889.91;;;18.13;38.63
69524;BME280;56723;42.694;23.286;2022-10-16T10:46:02;95881.66;;;18.16;38.75
69524;BME280;56723;42.694;23.286;2022-10-16T10:51:20;95877.38;;;18.37;39.05
69524;BME280;56723;42.694;23.286;2022-10-16T11:02:09;95882.38;;;18.31;39.61
69524;BME280;56723;42.694;23.286;2022-10-16T11:07:25;95867.09;;;18.42;39.43
69524;BME280;56723;42.694;23.286;2022-10-16T11:09:56;95873.06;;;18.29;37.40
69524;BME280;56723;42.694;23.286;2022-10-16T11:12:27;95870.81;;;18.26;38.11
69524;BME280;56723;42.694;23.286;2022-10-16T11:14:58;95860.06;;;18.49;40.56
69524;BME280;56723;42.694;23.286;2022-10-16T11:17:29;95864.66;;;18.68;36.85
69524;BME280;56723;42.694;23.286;2022-10-16T11:20:04;95857.00;;;18.73;37.47
69524;BME280;56723;42.694;23.286;2022-10-16T11:25:04;95856.28;;;18.99;37.00
69524;BME280;56723;42.694;23.286;2022-10-16T11:27:40;95852.47;;;19.01;37.82
69524;BME280;56723;42.694;23.286;2022-10-16T11:30:29;95859.53;;;19.01;37.73
69524;BME280;56723;42.694;23.286;2022-10-16T11:35:25;95847.25;;;19.08;37.91
69524;BME280;56723;42.694;23.286;2022-10-16T11:37:55;95848.09;;;19.22;36.41
69524;BME280;56723;42.694;23.286;2022-10-16T11:40:28;95849.88;;;19.15;34.98
69524;BME280;56723;42.694;23.286;2022-10-16T11:43:00;95849.13;;;19.27;35.31
69524;BME280;56723;42.694;23.286;2022-10-16T11:45:39;95855.00;;;19.29;35.21
69524;BME280;56723;42.694;23.286;2022-10-16T11:50:48;95858.00;;;19.33;36.53
69524;BME280;56723;42.694;23.286;2022-10-16T11:54:04;95849.94;;;19.28;36.36
69524;BME280;56723;42.694;23.286;2022-10-16T11:56:04;95846.47;;;19.21;36.70
69524;BME280;56723;42.694;23.286;2022-10-16T11:58:35;95843.06;;;19.27;36.60
69524;BME280;56723;42.694;23.286;2022-10-16T12:08:59;95845.13;;;19.51;34.20
69524;BME280;56723;42.694;23.286;2022-10-16T12:16:50;95842.94;;;20.14;32.84
69524;BME280;56723;42.694;23.286;2022-10-16T12:19:18;95848.00;;;20.22;33.65
69524;BME280;56723;42.694;23.286;2022-10-16T12:21:45;95845.78;;;19.93;33.65
69524;BME280;56723;42.694;23.286;2022-10-16T12:26:57;95842.75;;;20.02;33.61
69524;BME280;56723;42.694;23.286;2022-10-16T12:32:04;95851.63;;;20.08;33.52
69524;BME280;56723;42.694;23.286;2022-10-16T12:39:45;95852.84;;;20.19;33.53
69524;BME280;56723;42.694;23.286;2022-10-16T12:44:56;95851.00;;;20.32;32.90
69524;BME280;56723;42.694;23.286;2022-10-16T12:49:57;95847.97;;;20.09;32.25
69524;BME280;56723;42.694;23.286;2022-10-16T12:52:35;95844.75;;;20.00;32.80
69524;BME280;56723;42.694;23.286;2022-10-16T12:55:04;95845.78;;;19.99;32.56
69524;BME280;56723;42.694;23.286;2022-10-16T13:10:59;95862.09;;;20.61;33.85
69524;BME280;56723;42.694;23.286;2022-10-16T13:18:28;95846.34;;;20.54;30.89
69524;BME280;56723;42.694;23.286;2022-10-16T13:21:07;95856.44;;;20.57;32.87
69524;BME280;56723;42.694;23.286;2022-10-16T13:24:25;95849.47;;;20.83;31.44
69524;BME280;56723;42.694;23.286;2022-10-16T13:26:33;95847.03;;;20.88;30.46
69524;BME280;56723;42.694;23.286;2022-10-16T13:29:05;95857.25;;;20.58;30.50
69524;BME280;56723;42.694;23.286;2022-10-16T13:31:32;95852.75;;;20.78;31.65
69524;BME280;56723;42.694;23.286;2022-10-16T13:33:59;95857.47;;;21.14;30.69
69524;BME280;56723;42.694;23.286;2022-10-16T13:36:28;95853.56;;;21.17;30.61
69524;BME280;56723;42.694;23.286;2022-10-16T13:38:59;95855.78;;;21.26;30.28
69524;BME280;56723;42.694;23.286;2022-10-16T13:41:26;95859.84;;;21.29;31.06
69524;BME280;56723;42.694;23.286;2022-10-16T13:43:53;95860.06;;;21.21;30.79
69524;BME280;56723;42.694;23.286;2022-10-16T13:46:23;95867.53;;;21.30;31.09
69524;BME280;56723;42.694;23.286;2022-10-16T13:49:11;95861.13;;;21.13;30.33
69524;BME280;56723;42.694;23.286;2022-10-16T13:51:38;95872.84;;;21.24;30.33
69524;BME280;56723;42.694;23.286;2022-10-16T13:54:05;95865.94;;;21.16;30.15
69524;BME280;56723;42.694;23.286;2022-10-16T13:56:32;95860.78;;;21.41;29.77
69524;BME280;56723;42.694;23.286;2022-10-16T14:01:40;95862.59;;;20.96;29.14
69524;BME280;56723;42.694;23.286;2022-10-16T14:04:08;95861.53;;;21.03;29.01
69524;BME280;56723;42.694;23.286;2022-10-16T14:06:36;95866.88;;;20.90;29.65
69524;BME280;56723;42.694;23.286;2022-10-16T14:09:06;95865.53;;;20.68;29.37
69524;BME280;56723;42.694;23.286;2022-10-16T14:11:42;95870.13;;;20.79;29.70
69524;BME280;56723;42.694;23.286;2022-10-16T14:14:11;95879.94;;;20.46;29.60
69524;BME280;56723;42.694;23.286;2022-10-16T14:16:40;95871.66;;;20.35;29.24
69524;BME280;56723;42.694;23.286;2022-10-16T14:19:13;95875.91;;;20.30;30.16
69524;BME280;56723;42.694;23.286;2022-10-16T14:21:41;95867.75;;;20.71;29.88
69524;BME280;56723;42.694;23.286;2022-10-16T14:24:11;95871.34;;;20.90;29.27
69524;BME280;56723;42.694;23.286;2022-10-16T14:26:45;95867.34;;;20.74;28.79
69524;BME280;56723;42.694;23.286;2022-10-16T14:29:19;95878.97;;;20.20;29.37
69524;BME280;56723;42.694;23.286;2022-10-16T14:31:57;95873.88;;;19.86;29.53
69524;BME280;56723;42.694;23.286;2022-10-16T14:34:28;95883.59;;;19.92;29.99
69524;BME280;56723;42.694;23.286;2022-10-16T14:36:57;95888.44;;;19.68;29.96
69524;BME280;56723;42.694;23.286;2022-10-16T14:39:24;95884.44;;;19.99;30.03
69524;BME280;56723;42.694;23.286;2022-10-16T14:41:52;95869.88;;;20.03;29.33
69524;BME280;56723;42.694;23.286;2022-10-16T14:44:22;95888.06;;;19.98;29.33
69524;BME280;56723;42.694;23.286;2022-10-16T14:46:53;95889.69;;;19.99;29.66
69524;BME280;56723;42.694;23.286;2022-10-16T14:49:20;95896.13;;;19.77;30.16
69524;BME280;56723;42.694;23.286;2022-10-16T14:51:48;95897.06;;;19.49;30.35
69524;BME280;56723;42.694;23.286;2022-10-16T14:54:15;95898.66;;;19.37;30.17
69524;BME280;56723;42.694;23.286;2022-10-16T14:56:50;95902.75;;;18.98;31.33
69524;BME280;56723;42.694;23.286;2022-10-16T14:59:40;95906.44;;;18.42;31.99
69524;BME280;56723;42.694;23.286;2022-10-16T15:02:22;95904.53;;;18.01;32.99
69524;BME280;56723;42.694;23.286;2022-10-16T15:04:51;95916.28;;;17.62;34.14
69524;BME280;56723;42.694;23.286;2022-10-16T15:07:18;95919.59;;;17.35;34.78
69524;BME280;56723;42.694;23.286;2022-10-16T15:09:44;95920.09;;;17.09;34.97